Time;durP1;ratioP1;P1;durP2;ratioP2;P2;SDS_P1;SDS_P2;PMS_P1;PMS_P2;Temp;Humidity;BMP_temperature;BMP_pressure;BME280_temperature;BME280_humidity;BME280_pressure;Samples;Min_cycle;Max_cycle;Signal;HPM_P1;HPM_P2
2023/12/15 00:01:53;;;;;;;25.73;11.73;;;;;;;;;;5009488;28;20046;-69
2023/12/15 00:04:20;;;;;;;23.40;13.23;;;;;;;;;;5011466;28;20417;-70
2023/12/15 00:06:46;;;;;;;25.98;13.50;;;;;;;;;;5011173;28;20046;-68
2023/12/15 00:09:13;;;;;;;28.00;14.93;;;;;;;;;;5003436;28;20074;-68
2023/12/15 00:11:39;;;;;;;25.25;12.60;;;;;;;;;;5010355;28;20120;-68
2023/12/15 00:14:06;;;;;;;23.83;13.77;;;;;;;;;;5010541;28;20086;-71
2023/12/15 00:16:32;;;;;;;26.25;11.80;;;;;;;;;;5010324;28;20481;-70
2023/12/15 00:18:59;;;;;;;24.60;11.27;;;;;;;;;;5009427;28;20057;-70
2023/12/15 00:21:25;;;;;;;30.63;13.68;;;;;;;;;;5010085;28;20617;-68
2023/12/15 00:23:52;;;;;;;23.27;12.25;;;;;;;;;;5005937;28;20112;-70
2023/12/15 00:26:18;;;;;;;24.45;11.77;;;;;;;;;;5001175;28;20053;-68
2023/12/15 00:28:45;;;;;;;23.23;11.40;;;;;;;;;;5010112;28;20081;-68
2023/12/15 00:31:11;;;;;;;18.95;11.13;;;;;;;;;;5004184;28;20054;-70
2023/12/15 00:33:38;;;;;;;27.08;11.02;;;;;;;;;;5007585;28;20081;-68
2023/12/15 00:36:04;;;;;;;22.60;11.27;;;;;;;;;;5007724;28;20108;-68
2023/12/15 00:38:31;;;;;;;27.65;12.85;;;;;;;;;;5009530;28;20469;-68
2023/12/15 00:40:57;;;;;;;24.17;11.88;;;;;;;;;;5000553;28;20136;-68
2023/12/15 00:43:24;;;;;;;51.05;27.55;;;;;;;;;;5006235;28;20092;-68
2023/12/15 00:45:50;;;;;;;22.95;12.30;;;;;;;;;;5001665;28;20107;-68
2023/12/15 00:48:16;;;;;;;21.98;11.88;;;;;;;;;;5007016;28;20140;-68
2023/12/15 00:50:43;;;;;;;24.60;11.65;;;;;;;;;;5001181;28;20061;-68
2023/12/15 00:53:09;;;;;;;26.20;10.90;;;;;;;;;;5006582;28;20061;-68
2023/12/15 00:55:36;;;;;;;25.55;11.85;;;;;;;;;;5006514;28;20062;-69
2023/12/15 00:58:02;;;;;;;24.50;11.88;;;;;;;;;;5007511;28;20081;-71
2023/12/15 01:00:29;;;;;;;23.42;11.05;;;;;;;;;;5007607;28;20050;-68
2023/12/15 01:02:55;;;;;;;25.95;12.50;;;;;;;;;;5002846;28;20058;-68
2023/12/15 01:05:21;;;;;;;23.52;10.75;;;;;;;;;;5008108;28;20473;-70
2023/12/15 01:07:48;;;;;;;29.73;12.70;;;;;;;;;;5009114;28;20046;-68
2023/12/15 01:10:15;;;;;;;23.63;12.25;;;;;;;;;;5004336;28;20086;-70
2023/12/15 01:12:41;;;;;;;22.75;12.27;;;;;;;;;;5012936;28;20049;-68
2023/12/15 01:15:08;;;;;;;28.55;13.05;;;;;;;;;;5004292;28;20047;-70
2023/12/15 01:17:35;;;;;;;27.88;12.10;;;;;;;;;;5002446;28;20049;-70
2023/12/15 01:20:02;;;;;;;32.22;11.38;;;;;;;;;;5005118;28;20053;-70
2023/12/15 01:22:28;;;;;;;22.90;12.13;;;;;;;;;;5002397;28;20507;-70
2023/12/15 01:24:55;;;;;;;25.73;12.43;;;;;;;;;;5000629;28;20116;-68
2023/12/15 01:27:21;;;;;;;22.75;11.15;;;;;;;;;;5006247;28;20104;-70
2023/12/15 01:29:47;;;;;;;28.60;11.73;;;;;;;;;;5009917;28;20049;-70
2023/12/15 01:32:14;;;;;;;23.58;13.20;;;;;;;;;;5008895;28;20077;-70
2023/12/15 01:34:40;;;;;;;26.88;12.25;;;;;;;;;;5006583;28;20050;-70
2023/12/15 01:37:07;;;;;;;21.08;11.73;;;;;;;;;;5008621;28;20050;-71
2023/12/15 01:39:34;;;;;;;24.67;11.35;;;;;;;;;;5008493;28;20074;-71
2023/12/15 01:42:00;;;;;;;23.33;12.45;;;;;;;;;;4990797;28;20113;-67
2023/12/15 01:44:26;;;;;;;26.38;11.38;;;;;;;;;;4994724;28;20653;-70
2023/12/15 01:46:53;;;;;;;20.83;11.25;;;;;;;;;;5000111;28;20116;-70
2023/12/15 01:49:19;;;;;;;21.50;11.20;;;;;;;;;;5007285;28;20561;-70
2023/12/15 01:51:46;;;;;;;21.88;11.00;;;;;;;;;;5005763;28;20492;-70
2023/12/15 01:54:12;;;;;;;25.42;11.80;;;;;;;;;;5006763;28;20050;-70
2023/12/15 01:56:38;;;;;;;24.23;11.82;;;;;;;;;;5005516;28;20057;-68
2023/12/15 01:59:05;;;;;;;23.63;10.88;;;;;;;;;;4996381;28;20050;-68
2023/12/15 02:01:32;;;;;;;19.48;11.35;;;;;;;;;;5000903;28;20076;-71
2023/12/15 02:03:58;;;;;;;24.85;10.23;;;;;;;;;;5005509;28;20080;-70
2023/12/15 02:06:24;;;;;;;22.88;11.45;;;;;;;;;;5006404;28;20131;-69
2023/12/15 02:08:52;;;;;;;27.83;11.90;;;;;;;;;;4993825;28;20416;-70
2023/12/15 02:11:18;;;;;;;24.58;12.15;;;;;;;;;;5009242;28;20046;-70
2023/12/15 02:13:44;;;;;;;26.08;12.02;;;;;;;;;;5008548;28;20057;-70
2023/12/15 02:16:11;;;;;;;34.05;11.65;;;;;;;;;;4997040;28;20054;-70
2023/12/15 02:18:37;;;;;;;25.17;12.23;;;;;;;;;;5008298;28;20104;-70
2023/12/15 02:21:04;;;;;;;26.77;12.40;;;;;;;;;;5008372;28;20049;-70
2023/12/15 02:23:30;;;;;;;22.55;11.80;;;;;;;;;;5004869;28;20495;-70
2023/12/15 02:25:57;;;;;;;21.05;11.50;;;;;;;;;;5006124;28;20045;-69
2023/12/15 02:28:23;;;;;;;26.35;11.88;;;;;;;;;;5005070;28;20041;-70
2023/12/15 02:30:50;;;;;;;23.92;11.70;;;;;;;;;;5009902;28;20683;-69
2023/12/15 02:33:16;;;;;;;28.27;12.13;;;;;;;;;;5008379;28;20232;-70
2023/12/15 02:35:43;;;;;;;26.48;12.18;;;;;;;;;;5010898;28;20120;-70
2023/12/15 02:38:09;;;;;;;19.98;11.38;;;;;;;;;;5000925;28;20069;-69
2023/12/15 02:40:36;;;;;;;29.10;12.73;;;;;;;;;;5002557;28;20058;-70
2023/12/15 02:43:02;;;;;;;23.88;12.15;;;;;;;;;;4992411;28;20046;-69
2023/12/15 02:45:29;;;;;;;28.92;13.07;;;;;;;;;;5001346;28;20046;-69
2023/12/15 02:47:55;;;;;;;28.20;13.88;;;;;;;;;;4994426;28;20072;-70
2023/12/15 02:50:22;;;;;;;35.25;14.15;;;;;;;;;;4996297;28;20049;-69
2023/12/15 02:52:48;;;;;;;28.58;12.90;;;;;;;;;;5006705;28;20050;-70
2023/12/15 02:55:15;;;;;;;29.55;13.60;;;;;;;;;;4996641;28;20077;-70
2023/12/15 02:57:41;;;;;;;26.35;13.98;;;;;;;;;;4999954;28;20438;-70
2023/12/15 03:00:08;;;;;;;32.38;14.02;;;;;;;;;;5003566;28;20058;-70
2023/12/15 03:02:34;;;;;;;32.42;13.25;;;;;;;;;;5000460;28;20085;-70
2023/12/15 03:05:01;;;;;;;27.85;13.43;;;;;;;;;;4996639;28;20054;-67
2023/12/15 03:07:27;;;;;;;37.60;15.25;;;;;;;;;;5001108;28;20064;-70
2023/12/15 03:09:53;;;;;;;34.95;13.55;;;;;;;;;;5003640;28;20045;-68
2023/12/15 03:12:20;;;;;;;30.90;14.02;;;;;;;;;;4992098;28;20054;-69
2023/12/15 03:14:46;;;;;;;38.80;15.02;;;;;;;;;;4994051;28;20130;-69
2023/12/15 03:17:13;;;;;;;31.95;13.80;;;;;;;;;;4995733;28;20456;-70
2023/12/15 03:19:39;;;;;;;31.65;15.13;;;;;;;;;;4993778;28;20728;-68
2023/12/15 03:22:06;;;;;;;35.08;14.43;;;;;;;;;;5011289;28;20054;-70
2023/12/15 03:24:32;;;;;;;30.58;14.07;;;;;;;;;;5001792;28;20150;-70
2023/12/15 03:26:58;;;;;;;29.02;13.10;;;;;;;;;;4997960;28;20662;-70
2023/12/15 03:29:25;;;;;;;52.67;13.40;;;;;;;;;;5007131;28;20478;-70
2023/12/15 03:31:51;;;;;;;31.98;14.70;;;;;;;;;;4999176;28;20049;-68
2023/12/15 03:34:18;;;;;;;29.88;12.80;;;;;;;;;;5014394;28;20050;-70
2023/12/15 03:36:44;;;;;;;32.80;14.02;;;;;;;;;;5006253;28;20213;-70
2023/12/15 03:39:10;;;;;;;38.08;13.68;;;;;;;;;;4992828;28;20054;-70
2023/12/15 03:41:37;;;;;;;35.33;14.43;;;;;;;;;;4999933;28;20101;-68
2023/12/15 03:44:03;;;;;;;30.33;14.68;;;;;;;;;;5005987;28;20120;-68
2023/12/15 03:46:29;;;;;;;31.05;15.00;;;;;;;;;;5004543;28;20054;-69
2023/12/15 03:48:56;;;;;;;41.75;15.63;;;;;;;;;;5010947;28;20490;-70
2023/12/15 03:51:22;;;;;;;35.45;14.85;;;;;;;;;;5005603;28;20069;-70
2023/12/15 03:53:50;;;;;;;37.75;14.90;;;;;;;;;;4997563;28;20097;-71
2023/12/15 03:56:22;;;;;;;32.58;14.25;;;;;;;;;;5010242;28;20045;-68
2023/12/15 03:58:49;;;;;;;34.13;14.18;;;;;;;;;;5008327;28;20491;-68
2023/12/15 04:01:15;;;;;;;34.47;16.05;;;;;;;;;;5003320;28;20157;-68
2023/12/15 04:03:42;;;;;;;40.55;15.20;;;;;;;;;;5000003;28;20160;-68
2023/12/15 04:06:08;;;;;;;35.53;14.57;;;;;;;;;;5000878;28;20050;-70
2023/12/15 04:08:35;;;;;;;29.08;13.15;;;;;;;;;;5001475;28;20534;-69
2023/12/15 04:11:01;;;;;;;38.63;16.58;;;;;;;;;;5006966;28;20080;-70
2023/12/15 04:13:28;;;;;;;36.63;14.80;;;;;;;;;;5009562;28;20049;-70
2023/12/15 04:15:54;;;;;;;38.60;14.68;;;;;;;;;;5003939;28;20074;-69
2023/12/15 04:18:25;;;;;;;36.45;15.35;;;;;;;;;;5000945;28;20060;-69
2023/12/15 04:20:51;;;;;;;38.47;15.82;;;;;;;;;;5003691;28;20045;-69
2023/12/15 04:23:18;;;;;;;40.58;15.27;;;;;;;;;;5010249;28;20050;-69
2023/12/15 04:25:44;;;;;;;37.38;16.40;;;;;;;;;;5008423;28;20504;-69
2023/12/15 04:28:11;;;;;;;36.97;14.88;;;;;;;;;;5008991;28;20077;-69
2023/12/15 04:30:37;;;;;;;34.67;14.80;;;;;;;;;;5005087;28;20112;-67
2023/12/15 04:33:04;;;;;;;40.78;15.35;;;;;;;;;;5007629;28;20390;-70
2023/12/15 04:35:30;;;;;;;37.03;15.40;;;;;;;;;;5010504;28;20062;-69
2023/12/15 04:37:57;;;;;;;37.50;14.50;;;;;;;;;;5009462;28;20088;-70
2023/12/15 04:40:23;;;;;;;38.20;14.57;;;;;;;;;;5008958;28;20082;-70
2023/12/15 04:42:49;;;;;;;35.75;14.80;;;;;;;;;;4996470;28;20125;-70
2023/12/15 04:45:16;;;;;;;32.72;14.38;;;;;;;;;;5016678;28;20053;-67
2023/12/15 04:47:43;;;;;;;35.15;15.75;;;;;;;;;;5004701;28;20046;-68
2023/12/15 04:50:10;;;;;;;36.70;16.33;;;;;;;;;;5009797;28;20423;-70
2023/12/15 04:52:36;;;;;;;32.75;15.35;;;;;;;;;;5010119;28;20050;-68
2023/12/15 04:55:03;;;;;;;35.58;14.32;;;;;;;;;;5004133;28;20456;-68
2023/12/15 04:57:29;;;;;;;37.58;15.07;;;;;;;;;;5008602;28;20089;-68
2023/12/15 04:59:55;;;;;;;43.00;16.70;;;;;;;;;;5007440;28;20130;-68
2023/12/15 05:02:22;;;;;;;34.58;15.00;;;;;;;;;;5024379;28;20049;-68
2023/12/15 05:04:48;;;;;;;45.42;17.58;;;;;;;;;;5008382;28;20140;-67
2023/12/15 05:07:15;;;;;;;43.22;17.17;;;;;;;;;;5009208;28;20069;-68
2023/12/15 05:09:41;;;;;;;44.97;17.00;;;;;;;;;;5008998;28;20391;-68
2023/12/15 05:12:08;;;;;;;53.35;18.10;;;;;;;;;;5008343;28;20050;-68
2023/12/15 05:14:36;;;;;;;56.92;19.25;;;;;;;;;;4997595;28;20490;-68
2023/12/15 05:17:03;;;;;;;40.63;16.48;;;;;;;;;;4998170;28;20050;-68
2023/12/15 05:19:29;;;;;;;44.20;15.93;;;;;;;;;;5008772;28;20080;-68
2023/12/15 05:21:56;;;;;;;40.20;17.13;;;;;;;;;;5004872;28;20046;-68
2023/12/15 05:24:23;;;;;;;44.30;15.65;;;;;;;;;;5008642;28;20096;-68
2023/12/15 05:26:49;;;;;;;44.40;16.95;;;;;;;;;;4991347;28;20042;-68
2023/12/15 05:29:15;;;;;;;46.08;17.90;;;;;;;;;;5008836;28;20073;-68
2023/12/15 05:31:45;;;;;;;43.10;15.55;;;;;;;;;;5004250;28;20179;-68
2023/12/15 05:34:12;;;;;;;51.47;18.17;;;;;;;;;;5004421;28;20057;-68
2023/12/15 05:36:39;;;;;;;48.47;17.58;;;;;;;;;;5008774;28;20080;-68
2023/12/15 05:39:07;;;;;;;48.38;16.52;;;;;;;;;;5008017;28;20058;-70
2023/12/15 05:41:33;;;;;;;47.70;15.68;;;;;;;;;;5005187;28;20108;-70
2023/12/15 05:44:00;;;;;;;38.83;15.98;;;;;;;;;;4994175;28;20495;-69
2023/12/15 05:46:26;;;;;;;48.08;17.35;;;;;;;;;;5004457;28;20117;-67
2023/12/15 05:48:53;;;;;;;48.97;17.88;;;;;;;;;;5002282;28;20054;-68
2023/12/15 05:51:19;;;;;;;47.05;17.02;;;;;;;;;;5008557;28;20132;-68
2023/12/15 05:53:46;;;;;;;41.25;16.55;;;;;;;;;;5008644;28;20057;-68
2023/12/15 05:56:23;;;;;;;45.97;17.05;;;;;;;;;;5007541;28;20137;-68
2023/12/15 05:58:49;;;;;;;48.47;17.67;;;;;;;;;;5003299;28;20439;-68
2023/12/15 06:01:16;;;;;;;37.85;14.38;;;;;;;;;;4995174;28;20038;-68
2023/12/15 06:03:42;;;;;;;43.38;15.88;;;;;;;;;;4993873;28;20043;-68
2023/12/15 06:06:11;;;;;;;42.92;16.83;;;;;;;;;;5007277;28;20085;-68
2023/12/15 06:08:38;;;;;;;45.10;17.20;;;;;;;;;;5007223;28;20667;-69
2023/12/15 06:11:05;;;;;;;49.13;15.63;;;;;;;;;;5008938;28;20430;-69
2023/12/15 06:13:31;;;;;;;37.42;15.10;;;;;;;;;;5002887;28;20513;-68
2023/12/15 06:15:58;;;;;;;43.83;17.08;;;;;;;;;;4996134;28;20137;-68
2023/12/15 06:18:24;;;;;;;43.15;17.23;;;;;;;;;;5007937;28;20073;-70
2023/12/15 06:20:51;;;;;;;44.40;16.23;;;;;;;;;;5007250;28;20081;-68
2023/12/15 06:23:18;;;;;;;44.25;17.00;;;;;;;;;;5008414;28;20077;-68
2023/12/15 06:25:45;;;;;;;37.50;14.80;;;;;;;;;;5008437;28;20049;-68
2023/12/15 06:28:11;;;;;;;36.05;13.98;;;;;;;;;;5007626;28;20046;-71
2023/12/15 06:30:38;;;;;;;45.70;16.42;;;;;;;;;;5002544;28;20042;-69
2023/12/15 06:33:05;;;;;;;33.83;14.15;;;;;;;;;;5002434;28;20058;-69
2023/12/15 06:35:31;;;;;;;40.70;17.02;;;;;;;;;;5003612;28;20054;-68
2023/12/15 06:37:58;;;;;;;43.95;16.40;;;;;;;;;;5007237;28;20053;-70
2023/12/15 06:40:24;;;;;;;51.90;19.13;;;;;;;;;;5007845;28;20050;-70
2023/12/15 06:42:51;;;;;;;58.20;18.65;;;;;;;;;;5000999;28;20053;-70
2023/12/15 06:45:17;;;;;;;68.15;22.50;;;;;;;;;;5007246;28;20046;-70
2023/12/15 06:47:44;;;;;;;60.47;22.55;;;;;;;;;;5001059;28;20093;-70
2023/12/15 06:50:10;;;;;;;71.28;22.02;;;;;;;;;;5001836;28;20061;-70
2023/12/15 06:52:37;;;;;;;79.95;25.77;;;;;;;;;;4991749;28;20153;-70
2023/12/15 06:55:03;;;;;;;68.55;25.60;;;;;;;;;;4998312;28;20116;-70
2023/12/15 06:57:31;;;;;;;75.50;23.70;;;;;;;;;;5000392;28;20487;-68
2023/12/15 06:59:57;;;;;;;70.70;22.08;;;;;;;;;;5004944;28;20069;-68
2023/12/15 07:02:24;;;;;;;66.65;22.50;;;;;;;;;;5007417;28;20559;-69
2023/12/15 07:04:50;;;;;;;62.78;22.20;;;;;;;;;;5000407;28;20499;-68
2023/12/15 07:07:17;;;;;;;60.20;21.20;;;;;;;;;;5019216;28;20046;-69
2023/12/15 07:09:43;;;;;;;65.10;21.33;;;;;;;;;;5007828;28;20058;-69
2023/12/15 07:12:10;;;;;;;59.67;21.70;;;;;;;;;;5007896;28;20426;-69
2023/12/15 07:14:37;;;;;;;62.30;19.92;;;;;;;;;;5007635;28;20054;-69
2023/12/15 07:17:04;;;;;;;55.05;20.75;;;;;;;;;;5007102;28;20066;-69
2023/12/15 07:19:30;;;;;;;64.82;21.27;;;;;;;;;;5007137;28;20096;-69
2023/12/15 07:21:57;;;;;;;63.15;20.83;;;;;;;;;;4995593;28;20444;-69
2023/12/15 07:24:23;;;;;;;51.20;20.80;;;;;;;;;;4992459;28;20050;-69
2023/12/15 07:26:50;;;;;;;53.83;19.17;;;;;;;;;;5006874;28;20066;-69
2023/12/15 07:29:17;;;;;;;60.65;21.42;;;;;;;;;;5005497;28;20084;-69
2023/12/15 07:31:44;;;;;;;52.95;20.00;;;;;;;;;;5007179;28;20551;-69
2023/12/15 07:34:10;;;;;;;47.42;18.48;;;;;;;;;;5005201;28;20116;-69
2023/12/15 07:36:37;;;;;;;50.15;19.17;;;;;;;;;;5007017;28;20057;-70
2023/12/15 07:39:03;;;;;;;52.45;18.92;;;;;;;;;;5006601;28;20054;-69
2023/12/15 07:41:29;;;;;;;50.92;20.70;;;;;;;;;;5004141;28;20054;-69
2023/12/15 07:43:56;;;;;;;58.72;20.95;;;;;;;;;;4996515;28;20059;-69
2023/12/15 07:46:22;;;;;;;54.25;20.98;;;;;;;;;;5004735;28;20068;-70
2023/12/15 07:48:50;;;;;;;52.15;18.80;;;;;;;;;;5002161;28;20058;-69
2023/12/15 07:51:20;;;;;;;51.58;19.73;;;;;;;;;;5007612;28;20048;-69
2023/12/15 07:53:47;;;;;;;59.53;21.70;;;;;;;;;;4996981;28;20152;-69
2023/12/15 07:56:20;;;;;;;66.38;20.65;;;;;;;;;;5002432;28;20120;-71
2023/12/15 07:58:47;;;;;;;50.00;19.42;;;;;;;;;;4993574;28;20081;-69
2023/12/15 08:01:13;;;;;;;53.53;20.55;;;;;;;;;;4996488;28;20042;-69
2023/12/15 08:03:39;;;;;;;55.55;20.85;;;;;;;;;;4995433;28;20057;-69
2023/12/15 08:06:06;;;;;;;61.17;21.63;;;;;;;;;;5006055;28;20073;-70
2023/12/15 08:08:33;;;;;;;54.03;19.30;;;;;;;;;;5010399;28;20081;-70
2023/12/15 08:10:59;;;;;;;47.25;19.27;;;;;;;;;;5010582;28;20057;-70
2023/12/15 08:13:29;;;;;;;51.67;19.40;;;;;;;;;;5002474;28;20491;-70
2023/12/15 08:15:56;;;;;;;53.33;19.15;;;;;;;;;;5008225;28;20054;-69
2023/12/15 08:18:22;;;;;;;48.25;20.45;;;;;;;;;;5009205;28;20132;-69
2023/12/15 08:20:50;;;;;;;46.92;20.30;;;;;;;;;;5001117;28;20518;-70
2023/12/15 08:23:16;;;;;;;49.85;20.45;;;;;;;;;;5002156;28;20555;-69
2023/12/15 08:25:43;;;;;;;47.92;19.73;;;;;;;;;;5001013;28;20148;-69
2023/12/15 08:28:11;;;;;;;47.67;17.88;;;;;;;;;;5005653;28;20501;-69
2023/12/15 08:30:38;;;;;;;49.92;19.30;;;;;;;;;;4995262;28;20050;-70
2023/12/15 08:33:04;;;;;;;53.75;19.98;;;;;;;;;;5009296;28;20053;-69
2023/12/15 08:35:31;;;;;;;49.55;18.85;;;;;;;;;;5010117;28;20046;-69
2023/12/15 08:37:58;;;;;;;57.40;18.90;;;;;;;;;;5005877;28;20046;-71
2023/12/15 08:40:25;;;;;;;47.22;19.70;;;;;;;;;;5000878;28;20045;-70
2023/12/15 08:42:51;;;;;;;50.30;19.70;;;;;;;;;;5001619;28;20057;-69
2023/12/15 08:45:18;;;;;;;52.00;21.60;;;;;;;;;;5003147;28;20042;-69
2023/12/15 08:47:44;;;;;;;51.53;21.10;;;;;;;;;;5009195;28;20076;-69
2023/12/15 08:50:11;;;;;;;53.13;21.83;;;;;;;;;;5009898;28;20050;-69
2023/12/15 08:52:38;;;;;;;47.65;20.50;;;;;;;;;;5009507;28;20046;-69
2023/12/15 08:55:04;;;;;;;50.63;19.73;;;;;;;;;;5009361;28;20069;-69
2023/12/15 08:57:31;;;;;;;47.28;20.33;;;;;;;;;;5008917;28;20469;-71
2023/12/15 08:59:58;;;;;;;48.95;19.88;;;;;;;;;;5004793;28;20086;-71
2023/12/15 09:02:25;;;;;;;62.13;22.80;;;;;;;;;;5003470;28;20047;-72
2023/12/15 09:04:52;;;;;;;51.25;20.80;;;;;;;;;;5010076;28;20050;-71
2023/12/15 09:07:29;;;;;;;48.40;21.00;;;;;;;;;;5009234;28;20124;-69
2023/12/15 09:09:56;;;;;;;53.47;21.10;;;;;;;;;;5003572;28;20065;-69
2023/12/15 09:12:22;;;;;;;45.92;20.75;;;;;;;;;;5008745;28;20490;-71
2023/12/15 09:14:48;;;;;;;49.42;20.63;;;;;;;;;;5008886;28;20062;-69
2023/12/15 09:17:15;;;;;;;62.00;22.55;;;;;;;;;;4996578;28;20046;-71
2023/12/15 09:19:42;;;;;;;49.80;21.30;;;;;;;;;;5008943;28;20522;-69
2023/12/15 09:22:08;;;;;;;45.58;20.45;;;;;;;;;;5007390;28;20058;-71
2023/12/15 09:24:35;;;;;;;54.67;22.27;;;;;;;;;;5009578;28;20401;-69
2023/12/15 09:27:01;;;;;;;56.03;20.98;;;;;;;;;;4995751;28;20053;-70
2023/12/15 09:29:30;;;;;;;47.50;19.55;;;;;;;;;;5008674;28;20506;-69
2023/12/15 09:31:56;;;;;;;47.47;20.50;;;;;;;;;;4990927;28;20519;-70
2023/12/15 09:34:23;;;;;;;44.67;18.65;;;;;;;;;;5008066;28;20053;-69
2023/12/15 09:36:50;;;;;;;46.85;20.13;;;;;;;;;;5004233;28;20634;-69
2023/12/15 09:39:16;;;;;;;42.08;18.88;;;;;;;;;;4997277;28;20046;-69
2023/12/15 09:41:42;;;;;;;42.90;21.20;;;;;;;;;;5002892;28;20057;-69
2023/12/15 09:44:09;;;;;;;43.03;18.48;;;;;;;;;;4994808;28;20049;-71
2023/12/15 09:46:36;;;;;;;47.20;20.75;;;;;;;;;;5000971;28;20081;-69
2023/12/15 09:49:02;;;;;;;43.60;21.08;;;;;;;;;;5007450;28;20137;-69
2023/12/15 09:51:29;;;;;;;45.78;19.88;;;;;;;;;;5008651;28;20132;-69
2023/12/15 09:53:56;;;;;;;49.13;21.25;;;;;;;;;;5003010;28;20438;-69
2023/12/15 09:56:22;;;;;;;43.83;20.15;;;;;;;;;;4991638;28;20093;-70
2023/12/15 09:58:49;;;;;;;49.42;18.88;;;;;;;;;;5002111;28;20128;-69
2023/12/15 10:01:15;;;;;;;44.45;21.58;;;;;;;;;;5006792;28;20177;-71
2023/12/15 10:03:42;;;;;;;41.28;19.02;;;;;;;;;;4994809;28;20050;-70
2023/12/15 10:06:08;;;;;;;40.13;18.38;;;;;;;;;;4996169;28;20049;-71
2023/12/15 10:08:39;;;;;;;41.83;19.05;;;;;;;;;;5000609;28;20057;-68
2023/12/15 10:11:24;;;;;;;40.83;17.67;;;;;;;;;;5005141;28;20112;-69
2023/12/15 10:13:50;;;;;;;40.15;19.55;;;;;;;;;;5008420;28;20054;-71
2023/12/15 10:16:16;;;;;;;45.60;20.10;;;;;;;;;;5008042;28;20058;-71
2023/12/15 10:18:43;;;;;;;45.45;18.42;;;;;;;;;;5005266;28;20065;-70
2023/12/15 10:21:12;;;;;;;43.08;20.02;;;;;;;;;;5008034;28;20041;-70
2023/12/15 10:23:39;;;;;;;38.50;17.55;;;;;;;;;;5003067;28;20046;-72
2023/12/15 10:26:05;;;;;;;43.53;19.20;;;;;;;;;;4992323;28;20061;-72
2023/12/15 10:28:36;;;;;;;48.63;20.20;;;;;;;;;;4999430;28;20137;-73
2023/12/15 10:31:02;;;;;;;39.60;17.48;;;;;;;;;;5002176;28;20107;-74
2023/12/15 10:33:29;;;;;;;43.38;19.15;;;;;;;;;;5010132;28;20104;-72
2023/12/15 10:35:57;;;;;;;40.20;18.20;;;;;;;;;;5003570;28;20546;-71
2023/12/15 10:38:24;;;;;;;43.85;20.48;;;;;;;;;;5003288;28;20143;-69
2023/12/15 10:40:51;;;;;;;44.00;18.15;;;;;;;;;;5003101;28;20046;-69
2023/12/15 10:43:18;;;;;;;39.83;18.67;;;;;;;;;;5007630;28;20045;-69
2023/12/15 10:45:45;;;;;;;37.65;17.40;;;;;;;;;;5005934;28;20108;-71
2023/12/15 10:48:12;;;;;;;43.47;19.13;;;;;;;;;;5011956;28;20051;-69
2023/12/15 10:50:41;;;;;;;41.80;18.20;;;;;;;;;;5001321;28;20148;-71
2023/12/15 10:53:09;;;;;;;44.53;17.90;;;;;;;;;;5000881;28;20544;-70
2023/12/15 10:55:36;;;;;;;50.53;19.40;;;;;;;;;;4994485;28;20152;-69
2023/12/15 10:58:06;;;;;;;42.97;18.75;;;;;;;;;;5004571;28;20077;-73
2023/12/15 11:00:33;;;;;;;47.72;21.50;;;;;;;;;;4999263;28;20053;-70
2023/12/15 11:03:00;;;;;;;41.33;19.00;;;;;;;;;;5008573;28;20491;-69
2023/12/15 11:05:26;;;;;;;52.10;20.23;;;;;;;;;;5001658;28;20095;-69
2023/12/15 11:08:03;;;;;;;47.42;21.67;;;;;;;;;;5005960;28;20049;-71
2023/12/15 11:10:30;;;;;;;46.65;21.60;;;;;;;;;;5009182;28;20053;-70
2023/12/15 11:12:56;;;;;;;51.80;20.80;;;;;;;;;;5008309;28;20466;-70
2023/12/15 11:15:23;;;;;;;48.85;18.95;;;;;;;;;;5009111;28;20129;-70
2023/12/15 11:17:53;;;;;;;55.28;21.45;;;;;;;;;;5008153;28;20092;-70
2023/12/15 11:20:20;;;;;;;51.20;20.97;;;;;;;;;;5007966;28;20054;-70
2023/12/15 11:22:47;;;;;;;52.25;21.48;;;;;;;;;;5008516;28;20054;-72
2023/12/15 11:25:18;;;;;;;53.25;20.40;;;;;;;;;;5008969;28;20148;-71
2023/12/15 11:28:01;;;;;;;53.97;21.88;;;;;;;;;;5000855;28;20057;-70
2023/12/15 11:30:31;;;;;;;49.05;20.70;;;;;;;;;;5008297;28;20117;-70
2023/12/15 11:32:58;;;;;;;53.15;21.10;;;;;;;;;;5009013;28;20506;-70
2023/12/15 11:35:29;;;;;;;49.95;20.70;;;;;;;;;;4996279;28;20069;-71
2023/12/15 11:37:57;;;;;;;55.47;21.57;;;;;;;;;;5009108;28;20046;-71
2023/12/15 11:40:26;;;;;;;45.08;18.88;;;;;;;;;;5012633;28;20123;-72
2023/12/15 11:42:52;;;;;;;49.42;21.77;;;;;;;;;;5012479;28;20046;-71
2023/12/15 11:45:19;;;;;;;55.83;18.67;;;;;;;;;;5012271;28;20053;-72
2023/12/15 11:47:45;;;;;;;57.17;20.02;;;;;;;;;;5010781;28;20259;-71
2023/12/15 11:50:14;;;;;;;58.13;21.17;;;;;;;;;;5012835;28;20045;-73
2023/12/15 11:52:41;;;;;;;53.90;21.33;;;;;;;;;;5003301;28;20061;-71
2023/12/15 11:55:07;;;;;;;44.22;20.42;;;;;;;;;;5012421;28;20081;-71
2023/12/15 11:57:37;;;;;;;48.92;19.98;;;;;;;;;;5006723;28;20147;-71
2023/12/15 12:00:04;;;;;;;52.95;21.08;;;;;;;;;;5011197;28;20065;-69
2023/12/15 12:02:30;;;;;;;45.22;19.45;;;;;;;;;;5003941;28;20426;-70
2023/12/15 12:04:57;;;;;;;53.60;19.92;;;;;;;;;;5009174;28;20073;-72
2023/12/15 12:07:24;;;;;;;50.05;22.77;;;;;;;;;;5006821;28;20050;-71
2023/12/15 12:09:50;;;;;;;44.03;19.23;;;;;;;;;;5006197;28;20105;-73
2023/12/15 12:12:17;;;;;;;51.97;20.52;;;;;;;;;;5011378;28;20085;-72
2023/12/15 12:14:43;;;;;;;45.53;19.63;;;;;;;;;;5006038;28;20447;-71
2023/12/15 12:17:10;;;;;;;51.10;21.33;;;;;;;;;;5008230;28;20046;-69
2023/12/15 12:19:41;;;;;;;45.53;18.65;;;;;;;;;;5012741;28;20061;-72
2023/12/15 12:22:08;;;;;;;;;;;;;;;;;;5002509;28;20085;-70
2023/12/15 12:24:34;;;;;;;45.80;19.55;;;;;;;;;;5012034;28;19959;-70
2023/12/15 12:27:01;;;;;;;52.05;19.90;;;;;;;;;;5007168;28;20132;-71
2023/12/15 12:29:31;;;;;;;50.33;19.50;;;;;;;;;;5012644;28;20062;-75
2023/12/15 12:31:57;;;;;;;54.60;20.92;;;;;;;;;;5005568;28;20058;-72
2023/12/15 12:34:24;;;;;;;47.63;21.35;;;;;;;;;;5000646;28;20042;-73
2023/12/15 12:36:50;;;;;;;44.92;18.42;;;;;;;;;;5009792;28;20050;-72
2023/12/15 12:39:23;;;;;;;58.15;23.25;;;;;;;;;;5011937;28;20050;-70
2023/12/15 12:41:49;;;;;;;42.35;19.35;;;;;;;;;;5008334;28;20124;-72
2023/12/15 12:44:16;;;;;;;48.95;21.77;;;;;;;;;;5011978;28;20061;-71
2023/12/15 12:46:42;;;;;;;45.80;19.88;;;;;;;;;;5008512;28;20054;-71
2023/12/15 12:49:09;;;;;;;50.15;21.25;;;;;;;;;;4995309;28;20074;-71
2023/12/15 12:51:35;;;;;;;50.03;20.02;;;;;;;;;;5004792;28;20546;-73
2023/12/15 12:54:02;;;;;;;50.15;21.45;;;;;;;;;;5009922;28;20101;-73
2023/12/15 12:56:29;;;;;;;55.13;19.70;;;;;;;;;;5005924;28;20076;-71
2023/12/15 12:58:55;;;;;;;43.05;19.98;;;;;;;;;;4997624;28;20395;-71
2023/12/15 13:01:28;;;;;;;53.58;21.40;;;;;;;;;;5006345;28;20057;-71
2023/12/15 13:03:54;;;;;;;54.70;21.30;;;;;;;;;;5004338;28;20125;-72
2023/12/15 13:06:21;;;;;;;52.10;23.27;;;;;;;;;;5010957;28;20136;-70
2023/12/15 13:08:48;;;;;;;58.70;22.65;;;;;;;;;;5006092;28;20049;-71
2023/12/15 13:11:14;;;;;;;56.13;22.23;;;;;;;;;;5010643;28;20053;-70
2023/12/15 13:13:40;;;;;;;51.45;20.77;;;;;;;;;;5002902;28;20053;-70
2023/12/15 13:16:07;;;;;;;59.63;23.20;;;;;;;;;;5001530;28;20058;-70
2023/12/15 13:18:33;;;;;;;55.95;23.02;;;;;;;;;;5004852;28;20112;-70
2023/12/15 13:21:00;;;;;;;62.72;23.08;;;;;;;;;;4996253;28;20052;-70
2023/12/15 13:23:27;;;;;;;57.08;21.80;;;;;;;;;;5003690;28;20042;-69
2023/12/15 13:25:53;;;;;;;61.15;23.40;;;;;;;;;;5008915;28;20126;-70
2023/12/15 13:28:20;;;;;;;59.95;24.45;;;;;;;;;;5002597;28;20053;-70
2023/12/15 13:30:46;;;;;;;65.93;25.17;;;;;;;;;;5005734;28;20085;-70
2023/12/15 13:33:15;;;;;;;74.65;23.13;;;;;;;;;;5002239;28;20134;-70
2023/12/15 13:35:42;;;;;;;67.90;25.50;;;;;;;;;;5010932;28;20053;-70
2023/12/15 13:38:08;;;;;;;68.90;26.27;;;;;;;;;;5009796;28;20108;-69
2023/12/15 13:40:35;;;;;;;80.95;29.25;;;;;;;;;;5009824;28;20120;-73
2023/12/15 13:43:01;;;;;;;77.63;27.08;;;;;;;;;;5011319;28;20042;-74
2023/12/15 13:45:27;;;;;;;84.55;27.85;;;;;;;;;;5011653;28;20046;-70
2023/12/15 13:47:54;;;;;;;74.20;25.63;;;;;;;;;;5009810;28;20042;-70
2023/12/15 13:50:25;;;;;;;90.25;28.83;;;;;;;;;;5010565;28;20065;-70
2023/12/15 13:52:51;;;;;;;94.18;28.20;;;;;;;;;;5005165;28;20124;-71
2023/12/15 13:55:17;;;;;;;85.13;28.73;;;;;;;;;;5005971;28;20464;-73
2023/12/15 13:57:45;;;;;;;95.03;28.25;;;;;;;;;;5004929;28;20552;-72
2023/12/15 14:00:13;;;;;;;78.20;27.73;;;;;;;;;;5010040;28;20133;-73
2023/12/15 14:02:40;;;;;;;80.50;29.15;;;;;;;;;;5009266;28;20122;-73
2023/12/15 14:05:06;;;;;;;92.38;29.48;;;;;;;;;;5004052;28;20061;-73
2023/12/15 14:07:33;;;;;;;83.63;29.80;;;;;;;;;;5008933;28;20068;-74
2023/12/15 14:09:59;;;;;;;75.53;27.88;;;;;;;;;;5008554;28;20129;-72
2023/12/15 14:12:27;;;;;;;84.75;27.73;;;;;;;;;;5008419;28;20050;-73
2023/12/15 14:14:53;;;;;;;88.15;28.10;;;;;;;;;;5010280;28;20046;-72
2023/12/15 14:17:23;;;;;;;78.78;26.00;;;;;;;;;;5009420;28;20053;-73